TAF for HSAW provided by aerobaticsweb.org
Current time: Monday, 25 Jan, 2021, 17:53 UTC
(This may take a minute, please be patient)


The most recent TAF forecast from HSAW in our system was generated at
2015/05/25 06:00 UTC
The forecast is:
HSAW 2015/05/25 06:00 UTC
TAF HSAW 250400Z 2506/2612 18005G15KT 9999 SCT040 BKN140 PROB040
TEMPO 2512/2518 21006G16KT 6000 TSRA FEW045CB BKN120
TEMPO 2518/2524 06005KT 9999 SCT040 BKN140



access provided by Dr. Guenther Eichhorn at aerobaticsweb.org